Time;durP1;ratioP1;P1;durP2;ratioP2;P2;SDS_P1;SDS_P2;PMS_P1;PMS_P2;Temp;Humidity;BMP_temperature;BMP_pressure;BME280_temperature;BME280_humidity;BME280_pressure;Samples;Min_cycle;Max_cycle;Signal;HPM_P1;HPM_P2
2022/08/27 00:01:19;;;;;;;4.73;3.80;;;;;;;19.44;100.00;96043.94;5032484;27;105288;-67
2022/08/27 00:03:46;;;;;;;3.93;3.53;;;;;;;19.52;100.00;96045.06;5031263;28;101917;-67
2022/08/27 00:06:14;;;;;;;3.83;3.53;;;;;;;19.55;100.00;96052.53;5032476;27;105261;-67
2022/08/27 00:08:42;;;;;;;4.87;3.53;;;;;;;19.62;100.00;96047.47;5030733;27;105724;-67
2022/08/27 00:11:12;;;;;;;4.30;4.00;;;;;;;19.59;100.00;96051.59;5047491;27;101970;-67
2022/08/27 00:13:39;;;;;;;5.40;4.00;;;;;;;19.62;100.00;96050.94;5046143;27;105355;-67
2022/08/27 00:16:08;;;;;;;3.63;3.33;;;;;;;19.73;100.00;96057.63;5031120;28;101896;-67
2022/08/27 00:18:36;;;;;;;3.63;3.30;;;;;;;19.67;100.00;96053.50;5031108;27;105019;-67
2022/08/27 00:21:04;;;;;;;3.50;3.20;;;;;;;19.72;100.00;96060.66;5045702;27;105644;-67
2022/08/27 00:23:31;;;;;;;4.13;3.23;;;;;;;19.65;100.00;96057.63;5051113;27;101967;-67
2022/08/27 00:25:59;;;;;;;3.50;3.20;;;;;;;19.66;100.00;96053.81;5036818;27;103715;-67
2022/08/27 00:28:29;;;;;;;3.60;3.30;;;;;;;19.65;100.00;96063.81;5030852;27;104031;-67
2022/08/27 00:30:56;;;;;;;3.50;3.20;;;;;;;19.67;100.00;96068.91;5042042;27;102126;-67
2022/08/27 00:33:24;;;;;;;5.50;3.13;;;;;;;19.68;100.00;96067.78;5064916;27;104805;-67
2022/08/27 00:35:52;;;;;;;4.60;3.67;;;;;;;19.69;100.00;96066.69;5035131;27;103070;-68
2022/08/27 00:38:22;;;;;;;8.53;3.50;;;;;;;19.68;100.00;96070.50;5030804;27;105597;-68
2022/08/27 00:40:50;;;;;;;3.73;3.37;;;;;;;19.69;100.00;96075.59;5046727;27;105263;-68
2022/08/27 00:43:22;;;;;;;4.40;2.97;;;;;;;19.63;100.00;96068.72;5049515;27;102495;-68
2022/08/27 00:45:54;;;;;;;4.60;3.10;;;;;;;19.68;100.00;96076.66;5035695;27;105682;-68
2022/08/27 00:48:25;;;;;;;3.87;3.10;;;;;;;19.64;100.00;96073.03;5030104;28;105175;-68
2022/08/27 00:50:54;;;;;;;3.70;3.40;;;;;;;19.63;100.00;96067.94;5047773;27;102125;-68
2022/08/27 00:53:24;;;;;;;4.13;3.70;;;;;;;19.61;100.00;96075.56;5050041;27;104717;-67
2022/08/27 00:55:57;;;;;;;3.80;3.50;;;;;;;19.54;100.00;96064.44;5052020;27;102804;-68
2022/08/27 00:58:29;;;;;;;4.00;3.70;;;;;;;19.61;100.00;96068.25;5054192;27;102119;-68
2022/08/27 01:00:59;;;;;;;4.70;3.90;;;;;;;19.61;100.00;96062.84;5032090;27;105178;-68
2022/08/27 01:03:28;;;;;;;4.03;3.40;;;;;;;19.63;100.00;96054.47;5031984;27;101785;-68
2022/08/27 01:05:58;;;;;;;5.20;3.77;;;;;;;19.64;100.00;96054.16;5036247;27;104803;-67
2022/08/27 01:08:28;;;;;;;4.63;3.57;;;;;;;19.61;100.00;96051.28;5050061;27;105909;-67
2022/08/27 01:10:58;;;;;;;5.07;3.40;;;;;;;19.63;100.00;96057.94;5035712;27;102037;-67
2022/08/27 01:13:28;;;;;;;5.23;3.40;;;;;;;19.70;100.00;96058.28;5050651;27;105282;-67
2022/08/27 01:15:57;;;;;;;4.00;3.47;;;;;;;19.69;100.00;96061.28;5048058;27;105478;-67
2022/08/27 01:18:28;;;;;;;3.80;3.50;;;;;;;19.57;100.00;96061.13;5052182;27;101740;-67
2022/08/27 01:21:00;;;;;;;3.83;3.50;;;;;;;19.48;100.00;96065.69;5036231;27;105035;-67
2022/08/27 01:23:34;;;;;;;4.87;3.73;;;;;;;19.49;100.00;96061.88;5030305;28;101901;-67
2022/08/27 01:26:05;;;;;;;4.63;3.33;;;;;;;19.39;100.00;96060.28;5030300;27;105050;-67
2022/08/27 01:28:34;;;;;;;3.37;3.07;;;;;;;19.42;100.00;96073.16;5029262;28;105990;-67
2022/08/27 01:31:02;;;;;;;5.37;3.93;;;;;;;19.41;100.00;96065.34;5046959;27;102039;-67
2022/08/27 01:33:30;;;;;;;3.47;3.17;;;;;;;19.33;100.00;96064.22;5050169;27;105097;-67
2022/08/27 01:35:56;;;;;;;3.83;3.50;;;;;;;19.35;100.00;96062.00;5050505;27;103590;-67
2022/08/27 01:38:26;;;;;;;3.80;3.20;;;;;;;19.33;100.00;96058.03;5050307;27;101944;-67
2022/08/27 01:40:53;;;;;;;3.10;2.90;;;;;;;19.30;100.00;96058.66;5034371;27;104796;-67
2022/08/27 01:43:21;;;;;;;3.43;3.13;;;;;;;19.34;100.00;96062.34;5053063;27;104207;-67
2022/08/27 01:45:51;;;;;;;3.13;2.87;;;;;;;19.32;100.00;96061.84;5033581;27;105102;-67
2022/08/27 01:48:20;;;;;;;2.77;2.57;;;;;;;19.24;100.00;96059.91;5029137;28;105771;-67
2022/08/27 01:50:48;;;;;;;3.60;2.67;;;;;;;19.22;100.00;96062.13;5036208;27;102057;-67
2022/08/27 01:53:18;;;;;;;3.33;2.50;;;;;;;19.25;100.00;96064.19;5029390;28;105631;-67
2022/08/27 01:55:47;;;;;;;2.60;2.40;;;;;;;19.28;100.00;96060.88;5028667;28;106007;-67
2022/08/27 01:58:15;;;;;;;2.50;2.30;;;;;;;19.31;100.00;96057.56;5029450;28;101947;-67
2022/08/27 02:00:46;;;;;;;2.70;2.50;;;;;;;19.28;100.00;96060.88;5030421;28;102658;-67
2022/08/27 02:03:17;;;;;;;2.40;2.30;;;;;;;19.28;100.00;96055.47;5032261;28;103963;-67
2022/08/27 02:05:45;;;;;;;2.73;2.53;;;;;;;19.28;100.00;96050.88;5029517;27;104706;-67
2022/08/27 02:08:14;;;;;;;2.30;2.10;;;;;;;19.27;100.00;96053.88;5030401;27;102646;-67
2022/08/27 02:10:43;;;;;;;2.50;2.30;;;;;;;19.25;100.00;96053.41;5029595;28;101976;-67
2022/08/27 02:13:12;;;;;;;3.20;2.50;;;;;;;19.17;100.00;96054.13;5030335;27;104933;-67
2022/08/27 02:15:40;;;;;;;2.83;2.63;;;;;;;19.08;100.00;96056.03;5028799;28;105463;-67
2022/08/27 02:18:12;;;;;;;2.70;2.50;;;;;;;18.87;100.00;96061.19;5031882;27;101974;-67
2022/08/27 02:20:39;;;;;;;3.23;3.00;;;;;;;18.87;100.00;96066.56;5028955;27;104802;-67
2022/08/27 02:23:07;;;;;;;3.20;3.00;;;;;;;18.76;100.00;96062.53;5047377;27;105454;-67
2022/08/27 02:25:35;;;;;;;3.73;3.03;;;;;;;18.82;100.00;96065.88;5051955;27;101946;-67
2022/08/27 02:28:03;;;;;;;3.50;3.30;;;;;;;18.95;100.00;96065.00;5050102;27;102563;-67
2022/08/27 02:30:33;;;;;;;3.63;3.33;;;;;;;19.02;100.00;96063.44;5048711;27;101981;-67
2022/08/27 02:33:01;;;;;;;3.40;3.20;;;;;;;19.09;100.00;96050.31;5029116;28;105004;-67
2022/08/27 02:35:31;;;;;;;3.57;3.27;;;;;;;19.09;100.00;96058.41;5028381;27;105774;-67
2022/08/27 02:37:59;;;;;;;4.40;3.97;;;;;;;19.20;100.00;96058.91;5028863;28;102154;-67
2022/08/27 02:40:27;;;;;;;4.00;3.57;;;;;;;19.11;100.00;96060.78;5029093;27;104425;-67
2022/08/27 02:42:54;;;;;;;4.03;3.57;;;;;;;19.05;100.00;96062.81;5028497;28;105986;-67
2022/08/27 02:45:21;;;;;;;3.90;3.20;;;;;;;19.07;100.00;96060.59;5029090;28;102037;-67
2022/08/27 02:47:49;;;;;;;3.40;3.20;;;;;;;19.02;100.00;96062.66;5033037;27;102287;-67
2022/08/27 02:50:17;;;;;;;4.10;3.80;;;;;;;18.94;100.00;96060.72;5028827;27;102027;-67
2022/08/27 02:52:46;;;;;;;4.20;3.80;;;;;;;18.96;100.00;96056.59;5045700;27;105069;-67
2022/08/27 02:55:14;;;;;;;3.80;3.50;;;;;;;19.02;100.00;96059.97;5028275;28;105557;-67
2022/08/27 02:57:41;;;;;;;3.50;3.20;;;;;;;19.18;100.00;96056.53;5030125;27;101941;-67
2022/08/27 03:00:12;;;;;;;4.17;3.57;;;;;;;19.02;100.00;96055.34;5041751;27;106010;-67
2022/08/27 03:02:39;;;;;;;4.07;3.67;;;;;;;18.90;100.00;96059.72;5028485;27;105504;-67
2022/08/27 03:05:08;;;;;;;5.10;4.03;;;;;;;18.83;100.00;96056.69;5042119;27;103593;-67
2022/08/27 03:07:36;;;;;;;3.77;3.50;;;;;;;18.93;100.00;96049.16;5048870;27;105304;-67
2022/08/27 03:10:06;;;;;;;4.20;3.90;;;;;;;19.02;100.00;96043.78;5051240;27;106650;-67
2022/08/27 03:12:35;;;;;;;3.83;3.53;;;;;;;19.00;100.00;96037.91;5049055;27;101927;-67
2022/08/27 03:15:02;;;;;;;4.30;3.90;;;;;;;19.03;100.00;96048.84;5048337;27;104986;-67
2022/08/27 03:20:13;;;;;;;4.20;3.80;;;;;;;18.92;100.00;96044.06;5049026;27;105147;-67
2022/08/27 03:22:41;;;;;;;3.90;3.60;;;;;;;18.92;100.00;96036.75;5047596;27;106371;-67
2022/08/27 03:25:11;;;;;;;3.60;3.40;;;;;;;18.94;100.00;96039.97;5039230;27;102356;-67
2022/08/27 03:27:38;;;;;;;4.43;4.00;;;;;;;18.92;100.00;96033.28;5028543;28;106013;-67
2022/08/27 03:30:09;;;;;;;4.13;3.83;;;;;;;19.11;100.00;96031.94;5036711;27;105169;-67
2022/08/27 03:32:37;;;;;;;3.80;3.50;;;;;;;19.04;100.00;96041.56;5034440;27;101987;-67
2022/08/27 03:35:04;;;;;;;4.10;3.80;;;;;;;19.18;100.00;96044.97;5031220;27;105572;-67
2022/08/27 03:37:31;;;;;;;5.10;3.73;;;;;;;19.28;100.00;96048.19;5032038;27;102083;-67
2022/08/27 03:39:58;;;;;;;3.97;3.63;;;;;;;19.29;100.00;96051.69;5032845;27;105310;-67
2022/08/27 03:42:27;;;;;;;4.57;4.20;;;;;;;19.31;100.00;96050.28;5031164;27;105757;-67
2022/08/27 03:44:54;;;;;;;4.03;3.73;;;;;;;19.26;100.00;96046.91;5031425;27;101962;-67
2022/08/27 03:47:23;;;;;;;3.97;3.67;;;;;;;19.44;100.00;96043.94;5031525;28;105774;-67
2022/08/27 03:49:49;;;;;;;4.27;3.87;;;;;;;19.31;100.00;96038.69;5033344;27;102854;-67
2022/08/27 03:52:17;;;;;;;3.93;3.63;;;;;;;19.34;100.00;96044.22;5031572;27;102375;-67
2022/08/27 03:54:44;;;;;;;3.87;3.50;;;;;;;19.32;100.00;96040.25;5043710;27;104111;-67
2022/08/27 03:57:12;;;;;;;4.03;3.73;;;;;;;19.34;100.00;96036.16;5051261;27;102068;-67
2022/08/27 03:59:41;;;;;;;4.97;3.80;;;;;;;19.33;100.00;96044.53;5044131;27;101845;-67
2022/08/27 04:02:08;;;;;;;5.13;4.10;;;;;;;19.26;100.00;96042.31;5031937;27;102954;-67
2022/08/27 04:04:36;;;;;;;4.73;4.33;;;;;;;19.38;100.00;96037.13;5031506;28;102451;-67
2022/08/27 04:07:03;;;;;;;4.27;3.60;;;;;;;19.32;100.00;96042.97;5031430;27;105019;-67
2022/08/27 04:09:30;;;;;;;3.83;3.53;;;;;;;19.32;100.00;96042.97;5037009;27;105434;-67
2022/08/27 04:11:57;;;;;;;4.00;3.70;;;;;;;19.34;100.00;96040.75;5051428;27;101948;-67
2022/08/27 04:14:25;;;;;;;4.03;3.70;;;;;;;19.33;100.00;96033.75;5053899;27;105218;-67
2022/08/27 04:16:54;;;;;;;3.50;3.20;;;;;;;19.17;100.00;96040.66;5051455;27;101994;-67
2022/08/27 04:19:22;;;;;;;4.07;3.67;;;;;;;19.27;100.00;96045.78;5046153;27;105575;-67
2022/08/27 04:21:49;;;;;;;4.40;4.00;;;;;;;19.17;100.00;96043.34;5030298;27;104375;-67
2022/08/27 04:24:16;;;;;;;4.07;3.67;;;;;;;19.15;100.00;96048.28;5031483;27;102390;-67
2022/08/27 04:26:46;;;;;;;3.50;3.20;;;;;;;19.20;100.00;96058.91;5031208;28;104905;-67
2022/08/27 04:29:13;;;;;;;4.77;3.80;;;;;;;19.27;100.00;96059.28;5031636;27;106235;-67
2022/08/27 04:31:40;;;;;;;4.47;3.73;;;;;;;19.28;100.00;96055.47;5041951;27;102205;-67
2022/08/27 04:34:09;;;;;;;3.40;3.20;;;;;;;19.23;100.00;96055.63;5030947;28;105729;-67
2022/08/27 04:36:37;;;;;;;7.67;3.80;;;;;;;19.00;100.00;96056.78;5034040;28;103707;-67
2022/08/27 04:39:04;;;;;;;3.67;3.40;;;;;;;19.13;100.00;96063.97;5033573;27;105571;-67
2022/08/27 04:41:32;;;;;;;4.73;3.63;;;;;;;19.27;100.00;96064.66;5050124;27;106079;-67
2022/08/27 04:44:04;;;;;;;3.43;2.80;;;;;;;19.28;100.00;96068.94;5050423;27;102159;-67
2022/08/27 04:46:34;;;;;;;3.53;3.23;;;;;;;19.26;100.00;96066.59;5051052;27;105392;-67
2022/08/27 04:49:04;;;;;;;4.20;3.70;;;;;;;19.26;100.00;96068.47;5048753;27;104225;-67
2022/08/27 04:51:33;;;;;;;4.27;3.87;;;;;;;19.10;100.00;96067.28;5039855;27;101902;-67
2022/08/27 04:54:02;;;;;;;3.50;3.27;;;;;;;19.04;100.00;96065.81;5030487;27;105624;-67
2022/08/27 04:56:30;;;;;;;4.00;3.70;;;;;;;19.06;100.00;96074.38;5029668;28;106052;-67
2022/08/27 04:58:57;;;;;;;3.73;3.50;;;;;;;19.10;100.00;96064.59;5037094;27;101950;-67
2022/08/27 05:01:27;;;;;;;3.70;3.40;;;;;;;19.12;100.00;96070.47;5048597;27;105403;-67
2022/08/27 05:03:55;;;;;;;3.70;3.40;;;;;;;19.08;100.00;96072.19;5049129;27;101968;-67
2022/08/27 05:06:24;;;;;;;3.67;3.37;;;;;;;19.18;100.00;96072.69;5052053;27;102287;-67
2022/08/27 05:08:53;;;;;;;3.80;3.60;;;;;;;19.03;100.00;96066.94;5049437;27;103127;-67
2022/08/27 05:11:22;;;;;;;4.00;3.70;;;;;;;19.18;100.00;96069.22;5041185;27;101918;-67
2022/08/27 05:13:49;;;;;;;3.80;3.50;;;;;;;19.27;100.00;96070.88;5032599;27;105166;-67
2022/08/27 05:19:39;;;;;;;3.77;3.47;;;;;;;19.33;100.00;96063.41;5046186;27;102066;-67
2022/08/27 05:22:06;;;;;;;3.73;3.43;;;;;;;19.30;100.00;96064.84;5051930;27;105170;-67
2022/08/27 05:24:35;;;;;;;4.07;3.50;;;;;;;19.46;100.00;96067.91;5049166;27;103925;-67
2022/08/27 05:27:02;;;;;;;3.97;3.47;;;;;;;19.46;100.00;96073.31;5050410;27;105192;-67
2022/08/27 05:29:30;;;;;;;3.70;3.50;;;;;;;19.57;100.00;96069.97;5038955;27;105462;-67
2022/08/27 05:31:57;;;;;;;4.30;4.00;;;;;;;19.40;100.00;96077.25;5030173;27;101938;-67
2022/08/27 05:34:24;;;;;;;4.27;3.90;;;;;;;19.40;100.00;96080.72;5029900;27;103925;-67
2022/08/27 05:36:52;;;;;;;5.13;3.97;;;;;;;19.52;100.00;96077.44;5029346;28;105795;-67
2022/08/27 05:39:19;;;;;;;4.40;4.00;;;;;;;19.49;100.00;96068.06;5038186;27;102065;-67
2022/08/27 05:41:48;;;;;;;4.23;3.83;;;;;;;19.56;100.00;96073.78;5050270;27;105030;-67
2022/08/27 05:44:16;;;;;;;4.40;3.90;;;;;;;19.60;100.00;96076.66;5052420;27;105220;-67
2022/08/27 05:46:44;;;;;;;4.07;3.57;;;;;;;19.63;100.00;96070.66;5046371;27;105263;-67
2022/08/27 05:49:10;;;;;;;3.50;3.30;;;;;;;19.71;100.00;96075.25;5033605;27;105888;-67
2022/08/27 05:51:39;;;;;;;3.80;3.50;;;;;;;19.75;100.00;96078.91;5049850;27;101998;-67
2022/08/27 05:54:13;;;;;;;4.10;3.80;;;;;;;19.78;100.00;96083.69;5049754;27;105114;-67
2022/08/27 05:56:42;;;;;;;3.73;3.43;;;;;;;19.85;100.00;96082.13;5039525;27;102549;-67
2022/08/27 06:01:57;;;;;;;4.10;3.70;;;;;;;19.84;100.00;96085.13;5049491;27;107503;-67
2022/08/27 06:04:25;;;;;;;4.47;4.07;;;;;;;19.81;100.00;96081.16;5047530;27;104171;-67
2022/08/27 06:06:53;;;;;;;5.53;3.87;;;;;;;19.86;100.00;96085.59;5053336;27;101903;-67
2022/08/27 06:09:23;;;;;;;4.20;3.80;;;;;;;19.79;100.00;96086.03;5042758;27;105898;-67
2022/08/27 06:11:51;;;;;;;4.00;3.70;;;;;;;19.80;100.00;96084.16;5029513;27;102047;-67
2022/08/27 06:14:20;;;;;;;4.07;3.60;;;;;;;19.83;100.00;96073.53;5030418;27;104882;-67
2022/08/27 06:16:47;;;;;;;3.50;3.20;;;;;;;19.97;100.00;96073.38;5028643;28;103258;-67
2022/08/27 06:19:29;;;;;;;6.30;3.60;;;;;;;19.77;100.00;96073.97;5030587;27;101871;-67
2022/08/27 06:21:57;;;;;;;4.30;4.00;;;;;;;19.71;100.00;96075.25;4967727;28;102331;-67
2022/08/27 06:24:25;;;;;;;4.30;3.90;;;;;;;19.81;100.00;96080.34;4951220;28;103695;-67
2022/08/27 06:26:52;;;;;;;4.20;3.90;;;;;;;19.77;100.00;96079.38;4955257;28;102495;-67
2022/08/27 06:29:22;;;;;;;4.57;4.20;;;;;;;19.82;100.00;96071.13;4951640;28;105567;-67
2022/08/27 06:31:51;;;;;;;4.23;3.93;;;;;;;19.75;100.00;96074.31;4951578;28;101963;-67
2022/08/27 06:34:19;;;;;;;5.03;4.10;;;;;;;19.91;100.00;96074.66;4953994;28;105831;-67
2022/08/27 06:36:46;;;;;;;6.00;3.90;;;;;;;19.94;100.00;96071.31;4951071;28;105684;-67
2022/08/27 06:39:14;;;;;;;3.70;3.40;;;;;;;19.95;100.00;96075.59;4951909;28;102082;-67
2022/08/27 06:41:42;;;;;;;4.20;3.77;;;;;;;19.91;100.00;96072.75;4951314;28;105171;-66
2022/08/27 06:44:12;;;;;;;4.00;3.70;;;;;;;19.94;100.00;96076.72;4952102;28;105716;-66
2022/08/27 06:46:42;;;;;;;4.27;3.80;;;;;;;19.90;100.00;96081.94;4950878;28;101931;-66
2022/08/27 06:49:11;;;;;;;5.40;4.17;;;;;;;19.81;100.00;96075.75;4971068;28;102714;-65
2022/08/27 06:51:39;;;;;;;4.27;3.97;;;;;;;19.91;100.00;96080.03;4951418;28;101986;-65
2022/08/27 06:54:10;;;;;;;4.33;3.70;;;;;;;20.16;100.00;96077.38;4967918;28;102670;-66
2022/08/27 06:56:38;;;;;;;4.13;3.73;;;;;;;20.13;100.00;96071.81;4950883;28;106162;-66
2022/08/27 06:59:08;;;;;;;4.27;3.87;;;;;;;20.18;100.00;96079.75;4996253;28;102093;-66
2022/08/27 07:01:38;;;;;;;4.10;3.60;;;;;;;20.37;100.00;96078.31;5030013;28;102310;-64
2022/08/27 07:04:11;;;;;;;4.10;3.80;;;;;;;20.44;100.00;96085.97;5029522;28;102628;-66
2022/08/27 07:06:40;;;;;;;5.67;4.03;;;;;;;20.44;100.00;96083.25;5028849;27;101944;-66
2022/08/27 07:09:08;;;;;;;4.40;3.20;;;;;;;20.45;100.00;96082.94;5033620;28;102603;-66
2022/08/27 07:11:36;;;;;;;3.53;3.20;;;;;;;20.37;100.00;96077.53;5036598;28;101960;-66
2022/08/27 07:14:04;;;;;;;4.67;3.80;;;;;;;20.24;100.00;96084.69;5032045;28;105170;-66
2022/08/27 07:16:31;;;;;;;4.57;3.90;;;;;;;20.16;100.00;96088.19;5031539;28;105410;-66
2022/08/27 07:19:01;;;;;;;4.57;4.23;;;;;;;20.09;100.00;96089.75;5032014;28;102069;-66
2022/08/27 07:21:31;;;;;;;3.97;3.63;;;;;;;20.24;100.00;96092.81;5033662;28;102291;-66
2022/08/27 07:24:03;;;;;;;4.70;4.30;;;;;;;20.08;100.00;96094.38;5031393;28;105765;-66
2022/08/27 07:26:31;;;;;;;4.17;3.87;;;;;;;20.34;100.00;96099.78;5032243;28;101904;-66
2022/08/27 07:28:59;;;;;;;4.60;4.20;;;;;;;20.31;100.00;96103.09;5048786;27;105197;-66
2022/08/27 07:31:27;;;;;;;4.60;4.20;;;;;;;20.26;100.00;96103.25;5031452;28;105561;-67
2022/08/27 07:33:54;;;;;;;4.67;4.27;;;;;;;20.02;100.00;96101.03;5036788;28;101891;-66
2022/08/27 07:36:22;;;;;;;4.70;4.30;;;;;;;19.82;100.00;96104.31;5031059;28;105667;-66
2022/08/27 07:38:51;;;;;;;4.57;4.27;;;;;;;19.80;100.00;96103.84;5033425;28;101791;-67
2022/08/27 07:41:18;;;;;;;4.53;4.23;;;;;;;19.61;100.00;96097.16;5032977;28;102436;-66
2022/08/27 07:46:30;;;;;;;4.67;4.27;;;;;;;19.89;100.00;96095.78;5033307;28;101940;-66
2022/08/27 07:48:59;;;;;;;5.10;4.70;;;;;;;20.03;100.00;96099.91;5033370;28;102487;-67
2022/08/27 07:51:28;;;;;;;4.37;3.93;;;;;;;20.09;100.00;96104.06;5032290;28;104235;-66
2022/08/27 07:53:57;;;;;;;4.37;4.07;;;;;;;20.01;100.00;96101.34;5031279;28;102030;-67
2022/08/27 07:56:24;;;;;;;5.10;4.70;;;;;;;19.91;100.00;96115.13;5035729;28;102466;-67
2022/08/27 07:58:51;;;;;;;4.43;4.13;;;;;;;19.96;100.00;96104.19;5031574;28;101899;-67
2022/08/27 08:01:19;;;;;;;4.60;4.20;;;;;;;19.98;100.00;96107.34;5031245;28;105646;-66
2022/08/27 08:03:46;;;;;;;4.50;4.10;;;;;;;20.09;100.00;96114.06;5032148;28;102795;-66
2022/08/27 08:06:16;;;;;;;4.37;3.97;;;;;;;20.14;100.00;96109.31;5031361;28;102025;-65
2022/08/27 08:08:44;;;;;;;4.50;4.10;;;;;;;20.53;100.00;96113.72;5031278;28;104275;-65
2022/08/27 08:11:14;;;;;;;4.90;3.90;;;;;;;20.56;100.00;96113.09;5032106;28;102636;-66
2022/08/27 08:13:42;;;;;;;3.97;3.60;;;;;;;20.61;100.00;96124.53;5031329;28;101756;-65
2022/08/27 08:16:09;;;;;;;4.00;3.63;;;;;;;20.76;100.00;96121.34;5032444;28;102417;-65
2022/08/27 08:18:37;;;;;;;4.10;3.70;;;;;;;20.93;100.00;96128.66;5034556;27;101835;-65
2022/08/27 08:21:05;;;;;;;4.83;3.50;;;;;;;21.22;100.00;96128.72;5032215;28;103928;-65
2022/08/27 08:23:33;;;;;;;3.80;3.50;;;;;;;21.07;100.00;96131.94;5031470;28;102626;-65
2022/08/27 08:26:00;;;;;;;3.77;3.47;;;;;;;20.84;100.00;96134.06;5030996;28;101991;-65
2022/08/27 08:28:30;;;;;;;3.90;3.60;;;;;;;20.84;100.00;96125.13;5030908;28;105096;-65
2022/08/27 08:30:57;;;;;;;5.53;4.23;;;;;;;20.99;100.00;96128.16;5032121;28;103218;-65
2022/08/27 08:33:26;;;;;;;4.47;4.07;;;;;;;21.23;100.00;96133.81;5031135;28;101883;-65
2022/08/27 08:35:53;;;;;;;4.80;4.40;;;;;;;21.04;100.00;96138.03;5032081;28;102380;-65
2022/08/27 08:38:21;;;;;;;5.10;4.70;;;;;;;21.29;100.00;96131.72;5033759;28;105783;-65
2022/08/27 08:40:53;;;;;;;5.13;4.70;;;;;;;21.46;100.00;96135.16;5031198;28;105050;-65
2022/08/27 08:43:27;;;;;;;4.10;3.80;;;;;;;21.81;100.00;96133.91;5032079;28;103081;-65
2022/08/27 08:46:00;;;;;;;4.17;3.83;;;;;;;22.08;100.00;96138.03;5031086;28;101914;-65
2022/08/27 08:48:30;;;;;;;4.10;3.80;;;;;;;22.16;100.00;96131.75;5031069;28;104838;-65
2022/08/27 08:51:02;;;;;;;3.90;3.60;;;;;;;22.20;100.00;96127.28;5047114;27;105520;-65
2022/08/27 08:53:42;;;;;;;4.20;3.80;;;;;;;22.00;100.00;96130.75;5032040;28;101797;-65
2022/08/27 08:56:12;;;;;;;3.77;3.47;;;;;;;22.21;100.00;96135.09;5032189;28;102835;-66
2022/08/27 08:58:46;;;;;;;4.93;4.20;;;;;;;22.42;100.00;96126.94;5031340;28;103141;-66
2022/08/27 09:01:18;;;;;;;4.23;3.70;;;;;;;22.47;100.00;96129.50;5033685;28;101922;-66
2022/08/27 09:03:52;;;;;;;4.10;3.80;;;;;;;22.35;100.00;96121.28;5031493;28;102620;-65
2022/08/27 09:06:27;;;;;;;4.30;3.67;;;;;;;21.93;100.00;96131.28;5030541;28;101805;-66
2022/08/27 09:08:55;;;;;;;4.73;4.33;;;;;;;22.02;100.00;96134.72;5030600;28;103812;-65
2022/08/27 09:11:33;;;;;;;5.47;4.20;;;;;;;22.25;100.00;96122.47;5029687;28;106171;-66
2022/08/27 09:14:03;;;;;;;4.03;3.63;;;;;;;22.32;100.00;96121.91;5032097;28;101687;-65
2022/08/27 09:16:32;;;;;;;4.20;3.90;;;;;;;22.40;100.00;96115.66;5030295;28;105491;-65
2022/08/27 09:19:02;;;;;;;4.43;4.10;;;;;;;22.66;100.00;96124.38;5031322;28;102011;-66
2022/08/27 09:21:36;;;;;;;4.80;4.40;;;;;;;22.37;100.00;96121.72;5031567;28;101764;-66
2022/08/27 09:24:08;;;;;;;5.00;4.07;;;;;;;22.44;100.00;96113.88;5033066;28;105245;-65
2022/08/27 09:26:39;;;;;;;3.97;3.63;;;;;;;22.85;100.00;96121.97;5031466;28;101803;-66
2022/08/27 09:29:21;;;;;;;4.30;3.90;;;;;;;22.63;100.00;96116.91;5030137;28;105428;-66
2022/08/27 09:32:07;;;;;;;4.40;4.00;;;;;;;23.14;100.00;96121.81;5029773;28;102798;-66
2022/08/27 09:34:37;;;;;;;5.83;3.77;;;;;;;23.48;100.00;96121.47;5030789;28;101952;-66
2022/08/27 09:37:08;;;;;;;4.77;4.10;;;;;;;23.10;100.00;96112.78;5029926;28;105386;-66
2022/08/27 09:39:48;;;;;;;4.63;4.23;;;;;;;23.31;100.00;96113.50;5029165;28;106895;-66
2022/08/27 09:42:32;;;;;;;5.77;5.13;;;;;;;22.79;100.00;96115.97;5031479;28;101753;-65
2022/08/27 09:45:00;;;;;;;5.43;4.97;;;;;;;22.99;100.00;96111.63;5028177;28;105733;-66
2022/08/27 09:47:29;;;;;;;5.70;5.10;;;;;;;23.22;100.00;96110.13;5034340;28;102539;-66
2022/08/27 09:50:05;;;;;;;4.57;4.17;;;;;;;23.44;100.00;96110.47;5031232;28;101750;-66
2022/08/27 09:52:35;;;;;;;5.57;5.07;;;;;;;23.03;100.00;96105.19;5029180;28;105765;-66
2022/08/27 09:55:03;;;;;;;4.73;4.33;;;;;;;22.88;100.00;96113.16;5029894;28;102352;-66
2022/08/27 09:57:35;;;;;;;4.60;4.20;;;;;;;23.26;100.00;96105.59;5031021;28;102190;-66
2022/08/27 10:00:06;;;;;;;4.70;4.20;;;;;;;23.23;100.00;96100.84;5028786;28;105436;-66
2022/08/27 10:02:49;;;;;;;4.97;4.57;;;;;;;22.95;100.00;96102.56;5027893;28;101718;-66
2022/08/27 10:05:26;;;;;;;4.77;4.37;;;;;;;23.26;100.00;96100.19;5029563;28;104284;-66
2022/08/27 10:07:59;;;;;;;4.67;4.27;;;;;;;23.09;100.00;96103.84;5030513;28;102770;-66
2022/08/27 10:10:46;;;;;;;4.60;4.27;;;;;;;23.06;100.00;96106.44;5032986;28;101934;-66
2022/08/27 10:13:18;;;;;;;4.93;4.50;;;;;;;22.88;100.00;96097.69;5030416;28;102705;-65
2022/08/27 10:15:58;;;;;;;4.30;3.97;;;;;;;23.13;100.00;96102.03;5029425;28;102133;-66
2022/08/27 10:18:40;;;;;;;4.20;3.90;;;;;;;23.29;100.00;96099.47;5030601;28;101709;-65
2022/08/27 10:21:15;;;;;;;5.00;3.80;;;;;;;23.22;100.00;96096.53;5030618;28;103351;-65
2022/08/27 10:23:52;;;;;;;3.90;3.60;;;;;;;23.09;100.00;96097.59;5029444;28;102079;-66
2022/08/27 10:26:26;;;;;;;4.20;3.73;;;;;;;23.16;100.00;96098.63;5030728;28;102552;-66
2022/08/27 10:29:20;;;;;;;4.40;4.00;;;;;;;23.27;100.00;96101.75;5028648;28;106862;-65
2022/08/27 10:32:00;;;;;;;4.43;3.90;;;;;;;23.33;100.00;96097.69;5032760;28;102000;-66
2022/08/27 10:34:38;;;;;;;4.17;3.87;;;;;;;23.25;100.00;96096.66;5029908;28;102896;-66
2022/08/27 10:37:17;;;;;;;4.93;4.00;;;;;;;23.48;100.00;96094.31;5028995;28;101887;-66
2022/08/27 10:39:59;;;;;;;4.47;4.07;;;;;;;23.74;100.00;96081.97;5030526;28;102478;-66
2022/08/27 10:42:32;;;;;;;4.60;4.20;;;;;;;24.15;100.00;96080.91;5044982;27;105368;-66
2022/08/27 10:45:12;;;;;;;4.47;3.93;;;;;;;23.86;100.00;96079.22;5028931;28;101913;-66
2022/08/27 10:47:55;;;;;;;4.17;3.60;;;;;;;24.05;100.00;96081.38;5029103;28;105115;-66
2022/08/27 10:50:33;;;;;;;3.63;3.33;;;;;;;24.76;100.00;96085.00;5030054;28;102712;-66
2022/08/27 10:53:06;;;;;;;5.60;4.40;;;;;;;24.32;100.00;96075.19;5028920;28;101870;-66
2022/08/27 10:55:39;;;;;;;4.43;4.03;;;;;;;24.67;100.00;96070.78;5033387;28;102394;-66
2022/08/27 10:58:23;;;;;;;5.40;4.40;;;;;;;24.84;100.00;96070.47;5030302;28;101701;-66
2022/08/27 11:01:00;;;;;;;4.83;4.47;;;;;;;24.41;100.00;96076.63;5028417;28;105306;-66
2022/08/27 11:03:34;;;;;;;4.50;4.17;;;;;;;23.95;100.00;96069.06;5027975;28;104434;-66
2022/08/27 11:06:10;;;;;;;5.07;4.57;;;;;;;24.40;100.00;96063.38;5030386;28;101815;-66
2022/08/27 11:08:43;;;;;;;4.70;4.03;;;;;;;25.16;100.00;96062.00;5028686;28;105648;-66
2022/08/27 11:11:15;;;;;;;5.33;4.13;;;;;;;24.98;100.00;96062.69;5029500;27;102597;-66
2022/08/27 11:13:46;;;;;;;4.90;4.40;;;;;;;24.99;100.00;96061.53;5030344;28;101694;-66
2022/08/27 11:16:17;;;;;;;5.00;4.50;;;;;;;24.99;100.00;96065.06;5028480;28;105513;-66
2022/08/27 11:18:49;;;;;;;4.07;3.70;;;;;;;25.69;100.00;96060.59;5033004;28;102697;-66
2022/08/27 11:21:27;;;;;;;3.93;3.53;;;;;;;25.31;100.00;96063.16;5028500;28;104998;-66
2022/08/27 11:24:01;;;;;;;3.97;3.67;;;;;;;25.48;100.00;96060.09;5029238;28;102629;-66
2022/08/27 11:26:32;;;;;;;4.13;3.40;;;;;;;25.84;100.00;96051.59;5030187;28;102004;-66
2022/08/27 11:29:03;;;;;;;4.40;4.00;;;;;;;25.90;100.00;96050.97;5030268;28;102305;-66
2022/08/27 11:31:36;;;;;;;4.43;3.83;;;;;;;26.64;100.00;96045.19;5029282;27;102539;-66
2022/08/27 11:34:11;;;;;;;4.03;3.63;;;;;;;26.14;100.00;96039.03;5030222;28;101875;-66
2022/08/27 11:37:11;;;;;;;4.33;4.03;;;;;;;25.42;100.00;96045.16;5028178;28;105489;-66
2022/08/27 11:40:02;;;;;;;4.20;3.63;;;;;;;25.04;100.00;96036.78;5028752;27;103304;-66
2022/08/27 11:42:37;;;;;;;4.30;4.00;;;;;;;25.13;100.00;96035.47;5031566;28;102048;-66